Terminal Aerodrome Forecast
Issued by NWS Norman, OK

Home | Current Version | Previous Version | Text Only | Print | Product List | Glossary On
Versions: 1 2 3 4 5 6 7 8 9 10 11 12
000
FTUS44 KOUN 221135
TAFSPS
TAF
KSPS 221135Z 2212/2312 30013KT P6SM FEW250
      TEMPO 2212/2213 BKN009
     FM221300 34022G30KT P6SM BKN009
      TEMPO 2216/2217 SCT009 BKN015
     FM221700 34023G31KT P6SM FEW250
     FM230000 31010KT P6SM SKC=

USA.gov is the U.S. government's official web portal to all federal, state and local government web resources and services.